Time;durP1;ratioP1;P1;durP2;ratioP2;P2;SDS_P1;SDS_P2;PMS_P1;PMS_P2;Temp;Humidity;BMP_temperature;BMP_pressure;BME280_temperature;BME280_humidity;BME280_pressure;Samples;Min_cycle;Max_cycle;Signal;HPM_P1;HPM_P2
2021/08/16 00:00:26;;;;;;;;;;;;;;;22.14;61.38;100942.78;1589661;38;152809;-53
2021/08/16 00:01:57;;;;;;;;;;;;;;;22.14;61.50;100948.44;1588764;38;152702;-52
2021/08/16 00:03:30;;;;;;;;;;;;;;;22.16;61.34;100956.56;1589609;30;152767;-52
2021/08/16 00:05:02;;;;;;;;;;;;;;;22.16;61.22;100946.13;1588946;38;153546;-53
2021/08/16 00:06:34;;;;;;;;;;;;;;;22.14;61.72;100950.41;1590243;30;153463;-53
2021/08/16 00:08:07;;;;;;;;;;;;;;;22.16;61.50;100945.31;1588083;38;152785;-54
2021/08/16 00:09:39;;;;;;;;;;;;;;;22.16;61.73;100950.94;1587748;38;152759;-53
2021/08/16 00:11:11;;;;;;;;;;;;;;;22.14;61.55;100953.22;1587205;30;153550;-53
2021/08/16 00:12:43;;;;;;;;;;;;;;;22.14;61.34;100956.88;1587921;30;153459;-54
2021/08/16 00:14:15;;;;;;;;;;;;;;;22.15;61.63;100940.81;1592355;38;153604;-53
2021/08/16 00:15:47;;;;;;;;;;;;;;;22.13;61.91;100943.94;1587427;38;154439;-53
2021/08/16 00:17:19;;;;;;;;;;;;;;;22.15;61.90;100943.63;1587475;38;153864;-53
2021/08/16 00:18:51;;;;;;;;;;;;;;;22.14;62.01;100941.97;1589902;38;154119;-53
2021/08/16 00:20:22;;;;;;;;;;;;;;;22.14;62.14;100947.59;1589442;38;154465;-53
2021/08/16 00:21:54;;;;;;;;;;;;;;;22.14;61.91;100959.69;1588455;38;153535;-54
2021/08/16 00:23:26;;;;;;;;;;;;;;;22.15;61.94;100955.72;1589438;38;153578;-53
2021/08/16 00:24:58;;;;;;;;;;;;;;;22.15;62.25;100961.34;1590099;38;153532;-53
2021/08/16 00:26:31;;;;;;;;;;;;;;;22.15;62.31;100960.50;1588598;30;154118;-53
2021/08/16 00:28:03;;;;;;;;;;;;;;;22.15;62.12;100957.69;1588814;38;153513;-53
2021/08/16 00:29:35;;;;;;;;;;;;;;;22.17;61.88;100958.19;1588652;38;154817;-53
2021/08/16 00:31:07;;;;;;;;;;;;;;;22.16;62.27;100965.84;1589381;38;153738;-53
2021/08/16 00:32:39;;;;;;;;;;;;;;;22.16;62.46;100959.38;1586728;38;154208;-53
2021/08/16 00:34:11;;;;;;;;;;;;;;;22.16;62.37;100957.41;1590127;38;153808;-53
2021/08/16 00:35:42;;;;;;;;;;;;;;;22.15;62.25;100957.69;1591402;38;154194;-53
2021/08/16 00:37:14;;;;;;;;;;;;;;;22.15;62.44;100971.78;1588737;38;152093;-53
2021/08/16 00:38:46;;;;;;;;;;;;;;;22.14;62.54;100965.31;1587757;38;152369;-53
2021/08/16 00:40:18;;;;;;;;;;;;;;;22.14;62.42;100964.47;1589045;38;152031;-53
2021/08/16 00:41:50;;;;;;;;;;;;;;;22.16;62.44;100974.28;1589136;30;152191;-53
2021/08/16 00:43:22;;;;;;;;;;;;;;;22.16;62.31;100967.81;1587881;38;151897;-53
2021/08/16 00:44:54;;;;;;;;;;;;;;;22.15;62.37;100964.16;1590074;38;151719;-53
2021/08/16 00:46:27;;;;;;;;;;;;;;;22.16;62.43;100973.44;1589082;38;151747;-53
2021/08/16 00:47:59;;;;;;;;;;;;;;;22.15;62.32;100971.78;1586696;38;152204;-54
2021/08/16 00:49:31;;;;;;;;;;;;;;;22.15;62.85;100966.16;1589876;30;151996;-53
2021/08/16 00:51:03;;;;;;;;;;;;;;;22.16;62.36;100979.91;1589322;38;151821;-53
2021/08/16 00:52:36;;;;;;;;;;;;;;;22.15;62.78;100978.25;1590532;30;151926;-53
2021/08/16 00:54:08;;;;;;;;;;;;;;;22.16;62.49;100981.88;1587424;38;152003;-53
2021/08/16 00:55:40;;;;;;;;;;;;;;;22.15;62.82;100974.59;1589567;38;151669;-53
2021/08/16 00:57:12;;;;;;;;;;;;;;;22.16;62.67;100982.72;1591721;38;151711;-53
2021/08/16 00:58:44;;;;;;;;;;;;;;;22.17;62.15;100983.53;1588887;38;153221;-53
2021/08/16 01:00:16;;;;;;;;;;;;;;;22.15;62.61;100981.06;1587492;38;153254;-53
2021/08/16 01:01:48;;;;;;;;;;;;;;;22.17;62.18;100989.16;1587623;38;152635;-54
2021/08/16 01:03:20;;;;;;;;;;;;;;;22.15;62.43;100992.31;1589395;38;153501;-53
2021/08/16 01:04:52;;;;;;;;;;;;;;;22.16;62.24;100987.50;1588245;38;153141;-53
2021/08/16 01:06:24;;;;;;;;;;;;;;;22.15;62.24;100980.22;1589975;38;154718;-54
2021/08/16 01:07:55;;;;;;;;;;;;;;;22.15;62.47;100977.41;1589639;38;152777;-53
2021/08/16 01:09:27;;;;;;;;;;;;;;;22.16;62.44;100987.50;1586295;38;153507;-54
2021/08/16 01:10:59;;;;;;;;;;;;;;;22.16;62.51;100985.53;1589588;38;153275;-54
2021/08/16 01:12:32;;;;;;;;;;;;;;;22.16;62.42;100991.16;1587791;38;152724;-53
2021/08/16 01:14:04;;;;;;;;;;;;;;;22.16;62.05;100993.97;1587933;38;153397;-53
2021/08/16 01:15:36;;;;;;;;;;;;;;;22.17;62.69;100994.78;1588532;38;153236;-52
2021/08/16 01:17:08;;;;;;;;;;;;;;;22.16;62.35;100991.16;1588649;38;153178;-53
2021/08/16 01:18:40;;;;;;;;;;;;;;;22.15;62.63;100986.69;1590748;38;153788;-53
2021/08/16 01:20:12;;;;;;;;;;;;;;;22.15;62.05;100997.94;1589299;38;153931;-54
2021/08/16 01:21:44;;;;;;;;;;;;;;;22.15;61.96;100997.94;1588205;38;154336;-53
2021/08/16 01:23:16;;;;;;;;;;;;;;;22.17;61.88;101000.41;1589393;38;154429;-53
2021/08/16 01:24:48;;;;;;;;;;;;;;;22.17;61.62;101003.22;1588670;30;153280;-53
2021/08/16 01:26:20;;;;;;;;;;;;;;;22.16;61.40;101007.22;1587610;38;153376;-53
2021/08/16 01:27:52;;;;;;;;;;;;;;;22.17;60.85;101001.25;1588348;38;153680;-53
2021/08/16 01:29:24;;;;;;;;;;;;;;;22.18;60.81;101011.38;1588537;30;154090;-53
2021/08/16 01:31:03;;;;;;;;;;;;;;;22.18;60.68;101011.38;1588415;38;153548;-54
2021/08/16 01:32:35;;;;;;;;;;;;;;;22.17;60.73;101017.28;1588444;38;154627;-54
2021/08/16 01:34:06;;;;;;;;;;;;;;;22.17;60.54;101017.28;1589767;30;153972;-53
2021/08/16 01:35:38;;;;;;;;;;;;;;;22.16;60.64;101010.03;1587868;38;153576;-54
2021/08/16 01:37:10;;;;;;;;;;;;;;;22.16;60.34;101012.84;1588286;38;153859;-53
2021/08/16 01:38:43;;;;;;;;;;;;;;;22.18;59.93;101016.16;1590205;38;154079;-54
2021/08/16 01:40:16;;;;;;;;;;;;;;;22.17;60.02;101017.28;1589542;38;153496;-53
2021/08/16 01:41:48;;;;;;;;;;;;;;;22.16;59.31;101015.66;1591942;30;154631;-53
2021/08/16 01:43:19;;;;;;;;;;;;;;;22.17;59.40;101018.13;1589237;30;152022;-53
2021/08/16 01:44:51;;;;;;;;;;;;;;;22.15;59.02;101011.16;1586049;38;152504;-53
2021/08/16 01:46:24;;;;;;;;;;;;;;;22.15;58.77;101014.00;1588914;38;152305;-53
2021/08/16 01:47:56;;;;;;;;;;;;;;;22.15;58.37;101020.44;1589943;38;152016;-53
2021/08/16 01:49:28;;;;;;;;;;;;;;;22.16;58.11;101019.31;1586920;38;153322;-53
2021/08/16 01:51:00;;;;;;;;;;;;;;;22.14;58.17;101004.72;1588003;38;151853;-53
2021/08/16 01:52:32;;;;;;;;;;;;;;;22.14;58.26;101010.34;1587983;38;152450;-54
2021/08/16 01:54:04;;;;;;;;;;;;;;;22.12;57.58;101007.00;1590039;38;152183;-53
2021/08/16 01:55:36;;;;;;;;;;;;;;;22.11;57.85;101004.53;1589592;38;151829;-54
2021/08/16 01:57:08;;;;;;;;;;;;;;;22.12;57.50;101009.00;1589495;30;153297;-53
2021/08/16 01:58:40;;;;;;;;;;;;;;;22.10;57.63;101014.09;1590220;30;152072;-54
2021/08/16 02:00:12;;;;;;;;;;;;;;;22.10;57.21;101012.13;1590439;38;152547;-53
2021/08/16 02:01:44;;;;;;;;;;;;;;;22.11;57.48;101015.78;1589520;38;151729;-53
2021/08/16 02:03:16;;;;;;;;;;;;;;;22.10;57.29;101020.56;1592497;38;151937;-53
2021/08/16 02:04:48;;;;;;;;;;;;;;;22.11;57.05;101027.03;1590568;30;153016;-54
2021/08/16 02:06:21;;;;;;;;;;;;;;;22.11;57.01;101029.84;1589777;38;153600;-54
2021/08/16 02:07:52;;;;;;;;;;;;;;;22.12;56.98;101028.69;1588265;38;152779;-53
2021/08/16 02:09:25;;;;;;;;;;;;;;;22.12;56.97;101039.97;1588138;38;153780;-54
2021/08/16 02:10:57;;;;;;;;;;;;;;;22.11;56.64;101038.28;1590028;38;153173;-53
2021/08/16 02:12:29;;;;;;;;;;;;;;;22.10;56.41;101039.44;1588784;38;153056;-53
2021/08/16 02:14:00;;;;;;;;;;;;;;;22.09;56.59;101035.78;1586214;38;152819;-53
2021/08/16 02:15:32;;;;;;;;;;;;;;;22.10;56.44;101047.88;1586829;38;153977;-53
2021/08/16 02:17:04;;;;;;;;;;;;;;;22.10;56.39;101039.44;1589005;38;152564;-53
2021/08/16 02:18:36;;;;;;;;;;;;;;;22.08;56.12;101048.19;1590430;38;153491;-54
2021/08/16 02:20:08;;;;;;;;;;;;;;;22.08;55.73;101038.91;1586555;38;153497;-54
2021/08/16 02:21:40;;;;;;;;;;;;;;;22.07;55.77;101038.09;1588314;38;152968;-53
2021/08/16 02:23:12;;;;;;;;;;;;;;;22.06;55.96;101044.88;1589066;38;153370;-53
2021/08/16 02:24:44;;;;;;;;;;;;;;;22.05;56.14;101045.16;1593396;38;153454;-52
2021/08/16 02:26:15;;;;;;;;;;;;;;;22.07;55.98;101049.34;1589836;30;154269;-54
2021/08/16 02:27:48;;;;;;;;;;;;;;;22.06;55.46;101047.69;1586606;38;153538;-53
2021/08/16 02:29:21;;;;;;;;;;;;;;;22.07;55.13;101054.16;1589008;38;153475;-53
2021/08/16 02:30:53;;;;;;;;;;;;;;;22.05;55.34;101047.97;1590315;30;153273;-53
2021/08/16 02:32:25;;;;;;;;;;;;;;;22.03;54.99;101050.31;1589922;38;153961;-53
2021/08/16 02:33:56;;;;;;;;;;;;;;;22.04;55.34;101043.50;1589953;38;153986;-53
2021/08/16 02:35:28;;;;;;;;;;;;;;;22.03;55.00;101062.38;1587035;30;154226;-53
2021/08/16 02:37:00;;;;;;;;;;;;;;;22.03;54.91;101059.53;1589304;38;153454;-53
2021/08/16 02:38:32;;;;;;;;;;;;;;;22.03;54.80;101053.13;1589339;38;154403;-53
2021/08/16 02:40:04;;;;;;;;;;;;;;;22.02;54.61;101055.09;1588416;38;154205;-53
2021/08/16 02:41:36;;;;;;;;;;;;;;;22.02;54.72;101055.09;1589980;38;153814;-53
2021/08/16 02:43:08;;;;;;;;;;;;;;;22.02;54.78;101057.06;1588993;38;153389;-54
2021/08/16 02:44:40;;;;;;;;;;;;;;;22.01;54.98;101070.31;1588872;38;152014;-52
2021/08/16 02:46:12;;;;;;;;;;;;;;;22.01;54.54;101066.66;1590889;38;153542;-53
2021/08/16 02:47:44;;;;;;;;;;;;;;;22.02;54.64;101066.34;1588410;38;151947;-53
2021/08/16 02:49:16;;;;;;;;;;;;;;;22.00;54.19;101065.81;1589698;38;152196;-53
2021/08/16 02:50:48;;;;;;;;;;;;;;;21.99;54.71;101068.94;1588874;38;152727;-53
2021/08/16 02:52:19;;;;;;;;;;;;;;;22.00;54.47;101063.00;1589771;30;152008;-54
2021/08/16 02:53:52;;;;;;;;;;;;;;;21.97;54.38;101071.25;1588249;30;152044;-53
2021/08/16 02:55:24;;;;;;;;;;;;;;;21.97;54.30;101074.06;1588816;38;152375;-54
2021/08/16 02:56:55;;;;;;;;;;;;;;;21.99;54.63;101083.00;1586851;38;152048;-53
2021/08/16 02:58:27;;;;;;;;;;;;;;;21.97;54.44;101083.34;1589918;38;152264;-53
2021/08/16 02:59:59;;;;;;;;;;;;;;;21.98;54.65;101081.38;1588663;38;151778;-54
2021/08/16 03:01:31;;;;;;;;;;;;;;;21.96;54.68;101084.47;1589385;38;151936;-53
2021/08/16 03:03:03;;;;;;;;;;;;;;;21.97;54.45;101079.69;1587799;30;151903;-53
2021/08/16 03:04:35;;;;;;;;;;;;;;;21.95;54.18;101085.63;1586978;30;152277;-53
2021/08/16 03:06:07;;;;;;;;;;;;;;;21.97;53.74;101103.03;1588823;38;152210;-54
2021/08/16 03:07:39;;;;;;;;;;;;;;;21.94;53.66;101083.94;1589393;38;152157;-53
2021/08/16 03:09:10;;;;;;;;;;;;;;;21.95;53.66;101096.03;1591944;38;152422;-52
2021/08/16 03:10:42;;;;;;;;;;;;;;;21.96;53.92;101097.72;1588288;38;153140;-53
2021/08/16 03:12:14;;;;;;;;;;;;;;;21.94;53.58;101100.81;1589730;38;152823;-53
2021/08/16 03:13:46;;;;;;;;;;;;;;;21.92;53.44;101102.28;1590010;38;153531;-53
2021/08/16 03:15:18;;;;;;;;;;;;;;;21.94;53.76;101111.28;1588262;38;153408;-53
2021/08/16 03:16:50;;;;;;;;;;;;;;;21.93;53.85;101118.03;1588439;38;152955;-53
2021/08/16 03:18:24;;;;;;;;;;;;;;;21.92;53.85;101113.53;1586690;38;153545;-55
2021/08/16 03:19:56;;;;;;;;;;;;;;;21.89;53.93;101112.19;1586693;38;152834;-53
2021/08/16 03:21:28;;;;;;;;;;;;;;;21.86;53.78;101115.59;1589277;38;152446;-53
2021/08/16 03:23:00;;;;;;;;;;;;;;;21.87;53.47;101108.84;1589224;30;153312;-53
2021/08/16 03:24:32;;;;;;;;;;;;;;;21.88;53.21;101102.06;1589999;30;152610;-53
2021/08/16 03:26:04;;;;;;;;;;;;;;;21.88;53.69;101116.13;1588711;38;154448;-52
2021/08/16 03:27:36;;;;;;;;;;;;;;;21.88;53.41;101106.88;1588793;38;153499;-53
2021/08/16 03:29:08;;;;;;;;;;;;;;;21.88;53.58;101109.69;1587102;38;153492;-52
2021/08/16 03:30:40;;;;;;;;;;;;;;;21.86;53.28;101111.97;1591164;30;152964;-53
2021/08/16 03:32:12;;;;;;;;;;;;;;;21.85;53.29;101113.94;1589215;38;154012;-53
2021/08/16 03:33:44;;;;;;;;;;;;;;;21.85;53.13;101116.75;1589571;38;153913;-53
2021/08/16 03:35:16;;;;;;;;;;;;;;;21.87;53.08;101116.44;1588424;30;152855;-53
2021/08/16 03:36:48;;;;;;;;;;;;;;;21.85;53.68;101108.31;1587936;38;153425;-53
2021/08/16 03:38:20;;;;;;;;;;;;;;;21.84;53.77;101111.44;1589884;38;153945;-53
2021/08/16 03:39:51;;;;;;;;;;;;;;;21.81;53.14;101106.44;1587685;38;153828;-53
2021/08/16 03:41:23;;;;;;;;;;;;;;;21.81;53.58;101100.81;1589653;38;154129;-54
2021/08/16 03:42:55;;;;;;;;;;;;;;;21.81;53.41;101104.47;1589264;38;153810;-54
2021/08/16 03:44:27;;;;;;;;;;;;;;;21.81;53.38;101106.44;1589722;38;153504;-54
2021/08/16 03:45:59;;;;;;;;;;;;;;;21.79;53.30;101108.75;1588935;38;154117;-53
2021/08/16 03:47:31;;;;;;;;;;;;;;;21.80;52.98;101116.88;1588567;38;154255;-53
2021/08/16 03:49:03;;;;;;;;;;;;;;;21.80;52.86;101116.88;1587782;38;155161;-53
2021/08/16 03:50:35;;;;;;;;;;;;;;;21.79;53.33;101111.56;1590000;38;153403;-53
2021/08/16 03:52:06;;;;;;;;;;;;;;;21.79;53.21;101115.22;1592372;30;154060;-53
2021/08/16 03:53:39;;;;;;;;;;;;;;;21.80;52.94;101114.06;1588532;38;151714;-53
2021/08/16 03:55:11;;;;;;;;;;;;;;;21.78;52.96;101115.50;1589944;38;151783;-54
2021/08/16 03:56:42;;;;;;;;;;;;;;;21.74;52.96;101113.34;1587791;38;151821;-53
2021/08/16 03:58:14;;;;;;;;;;;;;;;21.73;52.68;101105.19;1586822;30;152008;-53
2021/08/16 03:59:46;;;;;;;;;;;;;;;21.75;52.89;101116.97;1588718;38;152261;-55
2021/08/16 04:01:18;;;;;;;;;;;;;;;21.74;52.68;101118.97;1589611;38;151949;-54
2021/08/16 04:02:50;;;;;;;;;;;;;;;21.72;52.53;101121.22;1587735;38;152193;-54
2021/08/16 04:04:22;;;;;;;;;;;;;;;21.73;52.49;101122.91;1588226;38;152152;-53
2021/08/16 04:05:54;;;;;;;;;;;;;;;21.73;52.63;101122.06;1590242;38;152210;-54
2021/08/16 04:07:26;;;;;;;;;;;;;;;21.74;52.88;101124.59;1589781;30;151766;-52
2021/08/16 04:08:58;;;;;;;;;;;;;;;21.73;52.53;101128.53;1588066;38;151865;-53
2021/08/16 04:10:30;;;;;;;;;;;;;;;21.73;52.67;101138.94;1588825;38;153430;-53
2021/08/16 04:12:02;;;;;;;;;;;;;;;21.73;52.62;101134.16;1589148;38;151937;-53
2021/08/16 04:13:34;;;;;;;;;;;;;;;21.72;52.49;101128.84;1591957;38;152398;-52
2021/08/16 04:15:08;;;;;;;;;;;;;;;21.74;52.87;101135.00;1586439;38;152534;-53
2021/08/16 04:16:42;;;;;;;;;;;;;;;21.73;52.38;101147.38;1588628;38;152769;-53
2021/08/16 04:18:14;;;;;;;;;;;;;;;21.71;52.39;101142.06;1589364;38;152785;-53
2021/08/16 04:19:46;;;;;;;;;;;;;;;21.72;52.54;101145.72;1588165;38;153542;-53
2021/08/16 04:21:18;;;;;;;;;;;;;;;21.69;52.57;101144.38;1590190;38;153528;-53
2021/08/16 04:22:50;;;;;;;;;;;;;;;21.71;52.32;101144.88;1589718;38;153907;-53
2021/08/16 04:24:22;;;;;;;;;;;;;;;21.71;52.42;101152.50;1586796;38;153461;-53
2021/08/16 04:25:54;;;;;;;;;;;;;;;21.71;52.42;101149.69;1588992;38;153134;-53
2021/08/16 04:27:26;;;;;;;;;;;;;;;21.70;52.63;101146.03;1590116;38;153756;-53
2021/08/16 04:28:58;;;;;;;;;;;;;;;21.69;52.42;101160.41;1588134;38;153392;-53
2021/08/16 04:30:30;;;;;;;;;;;;;;;21.68;52.02;101156.75;1590067;38;153719;-53
2021/08/16 04:32:02;;;;;;;;;;;;;;;21.66;52.51;101156.25;1589646;38;152542;-53
2021/08/16 04:33:34;;;;;;;;;;;;;;;21.66;51.97;101155.41;1587369;38;152957;-53
2021/08/16 04:35:06;;;;;;;;;;;;;;;21.67;52.43;101154.25;1593281;38;152301;-54
2021/08/16 04:36:38;;;;;;;;;;;;;;;21.67;52.50;101159.88;1587450;38;154290;-52
2021/08/16 04:38:10;;;;;;;;;;;;;;;21.65;51.98;101164.97;1589001;38;153356;-53
2021/08/16 04:39:42;;;;;;;;;;;;;;;21.65;52.05;101170.59;1588339;38;154174;-53
2021/08/16 04:41:14;;;;;;;;;;;;;;;21.66;52.31;101166.66;1587922;38;152150;-53
2021/08/16 04:42:46;;;;;;;;;;;;;;;21.65;52.31;101159.34;1588565;38;152103;-53
2021/08/16 04:44:18;;;;;;;;;;;;;;;21.64;51.99;101172.59;1587626;38;153267;-53
2021/08/16 04:45:50;;;;;;;;;;;;;;;21.63;52.37;101168.09;1589084;38;153179;-54
2021/08/16 04:47:22;;;;;;;;;;;;;;;21.64;51.89;101169.78;1589673;30;154567;-53
2021/08/16 04:48:54;;;;;;;;;;;;;;;21.63;52.04;101170.91;1587488;38;152537;-53
2021/08/16 04:50:25;;;;;;;;;;;;;;;21.61;52.18;101175.19;1588287;38;153448;-54
2021/08/16 04:51:57;;;;;;;;;;;;;;;21.60;51.81;101177.16;1590558;30;154100;-55
2021/08/16 04:53:29;;;;;;;;;;;;;;;21.60;52.22;101177.16;1588936;38;153351;-54
2021/08/16 04:55:01;;;;;;;;;;;;;;;21.60;51.94;101174.34;1588929;38;153809;-52
2021/08/16 04:56:33;;;;;;;;;;;;;;;21.60;52.04;101174.34;1588369;38;154081;-54
2021/08/16 04:58:05;;;;;;;;;;;;;;;21.61;52.16;101169.56;1589796;38;153840;-53
2021/08/16 04:59:37;;;;;;;;;;;;;;;21.60;52.03;101174.34;1589041;38;152078;-54
2021/08/16 05:01:08;;;;;;;;;;;;;;;21.59;52.08;101175.50;1587295;38;151966;-53
2021/08/16 05:02:41;;;;;;;;;;;;;;;21.60;52.32;101185.59;1589642;38;151987;-54
2021/08/16 05:04:13;;;;;;;;;;;;;;;21.59;52.46;101181.13;1589251;38;151882;-54
2021/08/16 05:05:52;;;;;;;;;;;;;;;21.59;52.35;101178.31;1587443;38;152233;-55
2021/08/16 05:07:24;;;;;;;;;;;;;;;21.59;52.08;101180.28;1589409;38;151929;-53
2021/08/16 05:08:56;;;;;;;;;;;;;;;21.58;52.31;101178.59;1587011;38;151775;-54
2021/08/16 05:10:29;;;;;;;;;;;;;;;21.59;52.29;101185.91;1589827;38;152275;-54
2021/08/16 05:12:01;;;;;;;;;;;;;;;21.59;52.18;101178.31;1588136;38;152640;-54
2021/08/16 05:13:33;;;;;;;;;;;;;;;21.57;52.08;101185.41;1586503;38;152251;-53
2021/08/16 05:15:05;;;;;;;;;;;;;;;21.55;52.27;101185.69;1588561;30;152059;-53
2021/08/16 05:16:37;;;;;;;;;;;;;;;21.56;52.10;101193.00;1587615;30;152157;-53
2021/08/16 05:18:10;;;;;;;;;;;;;;;21.54;52.00;101195.25;1589892;38;152164;-54
2021/08/16 05:19:42;;;;;;;;;;;;;;;21.53;51.85;101189.97;1589163;38;152181;-53
2021/08/16 05:21:14;;;;;;;;;;;;;;;21.52;52.20;101200.38;1587503;38;152630;-54
2021/08/16 05:22:47;;;;;;;;;;;;;;;21.52;52.07;101199.53;1589771;30;152586;-54
2021/08/16 05:24:19;;;;;;;;;;;;;;;21.52;52.14;101210.78;1588535;38;153295;-53
2021/08/16 05:25:51;;;;;;;;;;;;;;;21.52;51.96;101210.78;1588324;38;153446;-53
2021/08/16 05:27:23;;;;;;;;;;;;;;;21.54;52.04;101205.69;1589884;38;152770;-54
2021/08/16 05:28:55;;;;;;;;;;;;;;;21.53;51.93;101209.66;1587053;38;152819;-54
2021/08/16 05:30:27;;;;;;;;;;;;;;;21.53;52.42;101204.84;1586299;38;152725;-54
2021/08/16 05:31:59;;;;;;;;;;;;;;;21.53;52.02;101209.66;1586894;38;152981;-54
2021/08/16 05:33:31;;;;;;;;;;;;;;;21.52;51.72;101210.78;1589711;38;152209;-54
2021/08/16 05:35:03;;;;;;;;;;;;;;;21.51;52.08;101212.75;1588746;30;152796;-54
2021/08/16 05:36:35;;;;;;;;;;;;;;;21.51;51.94;101209.13;1588647;30;152631;-53
2021/08/16 05:38:07;;;;;;;;;;;;;;;21.51;51.77;101223.16;1589136;38;152966;-53
2021/08/16 05:39:38;;;;;;;;;;;;;;;21.49;51.94;101220.66;1588256;38;152811;-54
2021/08/16 05:41:10;;;;;;;;;;;;;;;21.48;51.80;101221.81;1590930;38;153502;-54
2021/08/16 05:42:42;;;;;;;;;;;;;;;21.50;51.94;101224.31;1589483;38;152215;-53
2021/08/16 05:44:14;;;;;;;;;;;;;;;21.49;52.04;101223.47;1588023;38;153392;-55
2021/08/16 05:45:46;;;;;;;;;;;;;;;21.48;51.80;101233.06;1589630;38;153353;-54
2021/08/16 05:47:18;;;;;;;;;;;;;;;21.49;51.82;101231.06;1589174;30;154417;-54
2021/08/16 05:48:50;;;;;;;;;;;;;;;21.48;52.17;101240.66;1586828;38;153418;-54
2021/08/16 05:50:23;;;;;;;;;;;;;;;21.47;51.74;101244.63;1586804;38;153616;-53
2021/08/16 05:51:56;;;;;;;;;;;;;;;21.46;51.60;101240.13;1587271;38;153339;-53
2021/08/16 05:53:27;;;;;;;;;;;;;;;21.44;51.77;101240.41;1588904;38;154070;-54
2021/08/16 05:54:59;;;;;;;;;;;;;;;21.45;51.55;101238.44;1587658;38;154246;-54
2021/08/16 05:56:31;;;;;;;;;;;;;;;21.45;51.64;101242.09;1588329;38;154227;-53
2021/08/16 05:58:03;;;;;;;;;;;;;;;21.45;51.56;101247.72;1589332;30;154151;-53
2021/08/16 05:59:35;;;;;;;;;;;;;;;21.43;51.87;101247.22;1588390;38;153394;-54
2021/08/16 06:01:07;;;;;;;;;;;;;;;21.42;51.53;101251.16;1588874;38;154214;-54
2021/08/16 06:02:39;;;;;;;;;;;;;;;21.43;51.39;101252.00;1591233;30;154142;-53
2021/08/16 06:04:12;;;;;;;;;;;;;;;21.42;51.56;101256.78;1587448;30;152603;-54
2021/08/16 06:05:44;;;;;;;;;;;;;;;21.42;51.74;101253.13;1588568;38;151946;-54
2021/08/16 06:07:16;;;;;;;;;;;;;;;21.41;51.57;101257.91;1589447;30;151789;-54
2021/08/16 06:08:48;;;;;;;;;;;;;;;21.41;51.62;101254.25;1588968;30;152151;-53
2021/08/16 06:10:20;;;;;;;;;;;;;;;21.42;51.47;101267.19;1588903;38;151868;-54
2021/08/16 06:11:51;;;;;;;;;;;;;;;21.43;51.65;101264.06;1585882;38;151959;-54
2021/08/16 06:13:23;;;;;;;;;;;;;;;21.44;52.12;101268.53;1588482;38;152387;-54
2021/08/16 06:14:55;;;;;;;;;;;;;;;21.44;51.64;101267.72;1589401;30;151935;-53
2021/08/16 06:16:28;;;;;;;;;;;;;;;21.45;51.81;101272.19;1587595;38;152352;-53
2021/08/16 06:18:00;;;;;;;;;;;;;;;21.42;51.36;101272.81;1588168;38;151751;-53
2021/08/16 06:19:33;;;;;;;;;;;;;;;21.41;51.58;101269.16;1590291;30;152145;-53
2021/08/16 06:21:05;;;;;;;;;;;;;;;21.39;51.57;101271.47;1587924;38;151881;-52
2021/08/16 06:22:37;;;;;;;;;;;;;;;21.39;51.30;101273.44;1588271;30;153283;-53
2021/08/16 06:24:10;;;;;;;;;;;;;;;21.39;51.59;101281.88;1588628;38;152718;-53
2021/08/16 06:25:42;;;;;;;;;;;;;;;21.39;51.56;101277.09;1591118;38;151810;-53
2021/08/16 06:27:14;;;;;;;;;;;;;;;21.36;51.29;101279.66;1587507;38;152146;-53
2021/08/16 06:28:46;;;;;;;;;;;;;;;21.35;51.37;101278.81;1588077;30;153475;-53
2021/08/16 06:30:18;;;;;;;;;;;;;;;21.35;51.07;101278.00;1589372;38;152888;-53
2021/08/16 06:31:49;;;;;;;;;;;;;;;21.34;51.30;101274.34;1587182;30;154207;-52
2021/08/16 06:33:22;;;;;;;;;;;;;;;21.36;51.38;101274.84;1588372;38;153610;-53
2021/08/16 06:34:54;;;;;;;;;;;;;;;21.36;51.37;101285.25;1586903;38;153669;-53
2021/08/16 06:36:27;;;;;;;;;;;;;;;21.38;51.37;101286.66;1589358;38;153190;-53
2021/08/16 06:38:00;;;;;;;;;;;;;;;21.36;51.37;101274.84;1586948;38;153643;-53
2021/08/16 06:39:31;;;;;;;;;;;;;;;21.36;51.39;101282.44;1589128;38;153401;-53
2021/08/16 06:41:03;;;;;;;;;;;;;;;21.37;51.54;101289.75;1588669;38;154251;-53
2021/08/16 06:42:35;;;;;;;;;;;;;;;21.37;51.75;101293.41;1589629;30;152783;-54
2021/08/16 06:44:07;;;;;;;;;;;;;;;21.39;51.80;101295.91;1587897;38;154637;-52
2021/08/16 06:45:39;;;;;;;;;;;;;;;21.39;51.50;101290.28;1590476;38;153367;-53
2021/08/16 06:47:12;;;;;;;;;;;;;;;21.40;51.72;101289.13;1591561;38;154114;-53
2021/08/16 06:48:44;;;;;;;;;;;;;;;21.39;51.80;101293.09;1588615;38;154205;-53
2021/08/16 06:50:16;;;;;;;;;;;;;;;21.39;51.28;101293.94;1587986;38;154271;-53
2021/08/16 06:51:48;;;;;;;;;;;;;;;21.37;51.39;101298.19;1589687;30;152547;-53
2021/08/16 06:53:20;;;;;;;;;;;;;;;21.36;51.50;101288.91;1589602;38;152953;-53
2021/08/16 06:54:52;;;;;;;;;;;;;;;21.38;51.51;101288.63;1587752;38;153577;-53
2021/08/16 06:56:23;;;;;;;;;;;;;;;21.37;51.42;101284.97;1588465;30;153708;-52
2021/08/16 06:57:55;;;;;;;;;;;;;;;21.35;51.02;101290.06;1589566;30;153445;-53
2021/08/16 06:59:27;;;;;;;;;;;;;;;21.36;51.51;101297.34;1588471;38;154306;-53
2021/08/16 07:01:00;;;;;;;;;;;;;;;21.36;51.24;101297.34;1588863;38;153181;-53
2021/08/16 07:02:32;;;;;;;;;;;;;;;21.35;51.39;101300.50;1589713;30;154313;-53
2021/08/16 07:04:05;;;;;;;;;;;;;;;21.34;51.44;101299.66;1589075;38;152561;-53
2021/08/16 07:05:41;;;;;;;;;;;;;;;21.32;51.51;101301.91;1586979;38;154182;-53
2021/08/16 07:07:13;;;;;;;;;;;;;;;21.33;51.29;101309.22;1588380;38;153039;-53
2021/08/16 07:08:45;;;;;;;;;;;;;;;21.34;51.32;101305.28;1590486;38;154130;-53
2021/08/16 07:10:17;;;;;;;;;;;;;;;21.34;51.71;101308.06;1587376;38;152698;-53
2021/08/16 07:11:49;;;;;;;;;;;;;;;21.34;51.30;101316.50;1588939;38;152394;-53
2021/08/16 07:13:21;;;;;;;;;;;;;;;21.33;51.00;101308.38;1586193;38;152158;-54
2021/08/16 07:14:56;;;;;;;;;;;;;;;21.33;51.53;101314.84;1588170;38;152586;-53
2021/08/16 07:16:29;;;;;;;;;;;;;;;21.32;51.35;101307.53;1587208;38;152026;-54
2021/08/16 07:18:03;;;;;;;;;;;;;;;21.33;51.68;101308.38;1587320;38;151958;-54
2021/08/16 07:19:37;;;;;;;;;;;;;;;21.32;51.58;101312.31;1588864;38;151824;-52
2021/08/16 07:21:09;;;;;;;;;;;;;;;21.32;51.37;101313.16;1589986;38;152239;-54
2021/08/16 07:22:41;;;;;;;;;;;;;;;21.29;51.57;101317.44;1587792;30;152100;-54
2021/08/16 07:24:15;;;;;;;;;;;;;;;21.32;51.32;101318.78;1586151;30;152120;-54
2021/08/16 07:25:48;;;;;;;;;;;;;;;21.31;51.59;101317.09;1588138;38;152085;-53
2021/08/16 07:27:20;;;;;;;;;;;;;;;21.30;51.51;101318.25;1590166;30;152049;-53
2021/08/16 07:28:52;;;;;;;;;;;;;;;21.31;51.57;101314.28;1586912;38;152028;-53
2021/08/16 07:30:26;;;;;;;;;;;;;;;21.30;52.00;101321.88;1591757;30;152520;-54
2021/08/16 07:32:00;;;;;;;;;;;;;;;21.30;51.95;101326.69;1588925;38;153388;-53
2021/08/16 07:33:33;;;;;;;;;;;;;;;21.31;51.95;101331.16;1589239;30;152791;-53
2021/08/16 07:35:05;;;;;;;;;;;;;;;21.30;51.34;101321.88;1589063;38;153605;-54
2021/08/16 07:36:38;;;;;;;;;;;;;;;21.30;51.74;101315.44;1585901;38;152967;-53
2021/08/16 07:38:10;;;;;;;;;;;;;;;21.30;51.52;101326.69;1588400;38;153474;-53
2021/08/16 07:39:42;;;;;;;;;;;;;;;21.30;51.70;101327.50;1586325;38;152534;-54
2021/08/16 07:41:14;;;;;;;;;;;;;;;21.31;51.82;101322.72;1587423;38;152816;-53
2021/08/16 07:42:51;;;;;;;;;;;;;;;21.31;51.42;101331.16;1588012;30;153306;-52
2021/08/16 07:44:24;;;;;;;;;;;;;;;21.31;51.50;101322.72;1590226;30;153827;-53
2021/08/16 07:45:56;;;;;;;;;;;;;;;21.30;51.73;101332.31;1586314;38;153045;-54
2021/08/16 07:47:28;;;;;;;;;;;;;;;21.30;52.03;101333.13;1588827;38;153514;-53